You are not logged in, Click here to log in
ICAO: RCKH Country: 中華民國高雄市小港區中山四路2號
Latitude: 22.5746 Longitude: 120.345
Total Arrivals: 451 Total Departures: 527
Latest Arrival: BR303 (RCSS-RCKH)CHU. CHUHAO Latest Departure: JX302 (RCKH-RCSS)Stone. Chang
Scenery:
METAR : RCKH 182208Z 12002KT 9999 VCSH FEW008 FEW012TCU BKN025 BKN060 25/25 Q1005 NOSIG RMK TCU W A2969

高雄國際機場KHH